createdAt,value
2023-02-12T00:04:07.485Z,103670.16
2023-02-12T00:09:10.288Z,103660.69
2023-02-12T00:14:13.154Z,103664.03
2023-02-12T00:19:17.334Z,103663.97
2023-02-12T00:24:20.187Z,103672.28
2023-02-12T00:29:23.012Z,103663.50
2023-02-12T00:34:27.193Z,103660.81
2023-02-12T00:39:29.943Z,103656.41
2023-02-12T00:44:32.913Z,103661.63
2023-02-12T00:49:37.110Z,103655.56
2023-02-12T00:54:40.196Z,103661.75
2023-02-12T00:59:43.011Z,103644.63
2023-02-12T01:04:47.361Z,103655.94
2023-02-12T01:09:50.236Z,103650.63
2023-02-12T01:14:53.104Z,103652.09
2023-02-12T01:19:59.666Z,103657.84
2023-02-12T01:25:02.801Z,103666.94
2023-02-12T01:30:07.290Z,103666.66
2023-02-12T01:35:11.550Z,103670.63
2023-02-12T01:40:18.888Z,103666.16
2023-02-12T01:45:49.676Z,103672.09
2023-02-12T01:50:54.506Z,103662.22
2023-02-12T01:55:59.452Z,103669.66
2023-02-12T02:01:03.863Z,103673.81
2023-02-12T02:06:12.418Z,103678.84
2023-02-12T02:11:34.965Z,103677.56
2023-02-12T02:16:38.341Z,103676.25
2023-02-12T02:22:03.480Z,103674.97
2023-02-12T02:27:28.952Z,103671.81
2023-02-12T02:32:37.579Z,103682.66
2023-02-12T02:37:42.066Z,103685.91
2023-02-12T02:42:48.680Z,103675.34
2023-02-12T02:47:55.365Z,103671.94
2023-02-12T02:53:02.467Z,103678.22
2023-02-12T02:58:09.200Z,103667.53
2023-02-12T03:03:20.138Z,103663.00
2023-02-12T03:08:25.945Z,103662.78
2023-02-12T03:13:33.765Z,103652.84
2023-02-12T03:18:43.465Z,103656.06
2023-02-12T03:23:50.541Z,103642.06
2023-02-12T03:28:53.644Z,103639.28
2023-02-12T03:34:07.477Z,103638.75
2023-02-12T03:39:13.279Z,103592.31
2023-02-12T03:44:22.727Z,103632.63
2023-02-12T03:49:29.093Z,103626.69
2023-02-12T03:54:33.337Z,103628.75
2023-02-12T03:59:37.953Z,103630.50
2023-02-12T04:04:42.699Z,103637.00
2023-02-12T04:09:45.850Z,103644.91
2023-02-12T04:14:54.471Z,103649.25
2023-02-12T04:20:09.856Z,103656.19
2023-02-12T04:25:23.062Z,103664.03
2023-02-12T04:30:30.205Z,103671.06
2023-02-12T04:35:37.737Z,103673.56
2023-02-12T04:40:43.119Z,103676.41
2023-02-12T04:45:46.102Z,103685.31
2023-02-12T04:50:50.515Z,103682.72
2023-02-12T04:55:53.764Z,103694.22
2023-02-12T05:01:00.213Z,103691.31
2023-02-12T05:06:08.917Z,103692.31
2023-02-12T05:11:12.500Z,103685.94
2023-02-12T05:16:15.344Z,103691.66
2023-02-12T05:21:19.489Z,103683.53
2023-02-12T05:26:23.798Z,103686.47
2023-02-12T05:31:26.929Z,103691.53
2023-02-12T05:36:31.295Z,103691.66
2023-02-12T05:41:35.667Z,103689.91
2023-02-12T05:46:38.762Z,103697.25
2023-02-12T05:51:43.029Z,103700.84
2023-02-12T05:56:47.437Z,103713.63
2023-02-12T06:01:51.532Z,103715.13
2023-02-12T06:06:56.742Z,103704.56
2023-02-12T06:11:59.716Z,103721.25
2023-02-12T06:17:02.598Z,103717.66
2023-02-12T06:22:06.882Z,103722.03
2023-02-12T06:27:09.715Z,103716.97
2023-02-12T06:32:13.640Z,103722.50
2023-02-12T06:37:17.836Z,103727.56
2023-02-12T06:42:20.872Z,103727.69
2023-02-12T06:47:23.633Z,103734.81
2023-02-12T06:52:29.339Z,103735.56
2023-02-12T06:57:32.209Z,103735.63
2023-02-12T07:02:37.340Z,103751.25
2023-02-12T07:07:42.871Z,103749.50
2023-02-12T07:12:45.818Z,103754.00
2023-02-12T07:17:48.697Z,103749.00
2023-02-12T07:22:52.987Z,103750.78
2023-02-12T07:27:57.494Z,103757.91
2023-02-12T07:33:00.396Z,103772.00
2023-02-12T07:38:04.569Z,103774.88
2023-02-12T07:43:07.394Z,103788.09
2023-02-12T07:48:12.764Z,103795.41
2023-02-12T07:53:16.936Z,103806.66
2023-02-12T07:58:19.828Z,103806.84
2023-02-12T08:03:22.729Z,103815.59
2023-02-12T08:08:26.914Z,103814.97
2023-02-12T08:13:29.851Z,103831.78
2023-02-12T08:18:33.257Z,103834.44
2023-02-12T08:23:37.564Z,103845.09
2023-02-12T08:28:42.849Z,103841.91
2023-02-12T08:33:46.073Z,103838.50
2023-02-12T08:38:50.661Z,103859.06
2023-02-12T08:43:55.572Z,103863.50
2023-02-12T08:48:59.943Z,103873.38
2023-02-12T08:54:06.275Z,103871.06
2023-02-12T08:59:10.357Z,103874.94
2023-02-12T09:04:17.747Z,103884.72
2023-02-12T09:09:22.551Z,103885.09
2023-02-12T09:14:25.497Z,103894.97
2023-02-12T09:19:28.332Z,103893.47
2023-02-12T09:24:33.008Z,103894.63
2023-02-12T09:29:36.060Z,103898.53
2023-02-12T09:34:38.937Z,103903.03
2023-02-12T09:39:43.131Z,103899.78
2023-02-12T09:44:47.983Z,103899.25
2023-02-12T09:50:02.524Z,103902.19
2023-02-12T09:55:07.141Z,103902.41
2023-02-12T10:00:12.904Z,103898.47
2023-02-12T10:05:18.476Z,103906.25
2023-02-12T10:10:36.365Z,103904.41
2023-02-12T10:15:41.341Z,103902.84
2023-02-12T10:20:54.361Z,103905.47
2023-02-12T10:26:00.396Z,103912.00
2023-02-12T10:31:06.864Z,103909.50
2023-02-12T10:36:18.025Z,103912.09
2023-02-12T10:41:23.692Z,103900.84
2023-02-12T10:46:26.632Z,103890.69
2023-02-12T10:51:44.549Z,103898.91
2023-02-12T10:56:48.790Z,103904.44
2023-02-12T11:01:52.154Z,103908.19
2023-02-12T11:06:59.532Z,103907.28
2023-02-12T11:12:04.102Z,103903.84
2023-02-12T11:17:07.037Z,103905.16
2023-02-12T11:22:14.546Z,103895.59
2023-02-12T11:27:25.166Z,103889.69
2023-02-12T11:32:28.030Z,103883.81
2023-02-12T11:37:33.008Z,103888.06
2023-02-12T11:42:38.717Z,103885.84
2023-02-12T11:47:41.917Z,103884.66
2023-02-12T11:52:45.122Z,103882.75
2023-02-12T11:57:50.532Z,103887.41
2023-02-12T12:02:58.594Z,103886.25
2023-02-12T12:08:05.352Z,103887.16
2023-02-12T12:13:15.208Z,103882.22
2023-02-12T12:18:43.315Z,103876.75
2023-02-12T12:23:51.150Z,103873.13
2023-02-12T12:29:02.370Z,103885.28
2023-02-12T12:34:08.846Z,103877.41
2023-02-12T12:39:18.818Z,103877.38
2023-02-12T12:44:31.940Z,103870.75
2023-02-12T12:50:00.724Z,103861.88
2023-02-12T12:55:14.933Z,103865.22
2023-02-12T13:00:44.769Z,103866.91
2023-02-12T13:05:56.306Z,103860.78
2023-02-12T13:11:02.093Z,103841.53
2023-02-12T13:16:11.194Z,103849.53
2023-02-12T13:21:20.399Z,103829.44
2023-02-12T13:26:36.579Z,103832.13
2023-02-12T13:31:46.429Z,103826.06
2023-02-12T13:36:50.497Z,103823.78
2023-02-12T13:42:05.000Z,103818.31
2023-02-12T13:47:11.705Z,103810.44
2023-02-12T13:52:21.106Z,103815.88
2023-02-12T13:57:25.367Z,103806.94
2023-02-12T14:02:46.432Z,103799.84
2023-02-12T14:07:50.977Z,103796.47
2023-02-12T14:12:57.476Z,103807.00
2023-02-12T14:18:22.008Z,103802.53
2023-02-12T14:23:27.586Z,103792.66
2023-02-12T14:28:43.205Z,103798.13
2023-02-12T14:33:46.704Z,103795.47
2023-02-12T14:39:17.332Z,103794.41
2023-02-12T14:44:48.837Z,103796.78
2023-02-12T14:49:54.907Z,103803.63
2023-02-12T14:54:59.159Z,103800.94
2023-02-12T15:00:09.284Z,103787.13
2023-02-12T15:05:16.701Z,103783.50
2023-02-12T15:10:20.980Z,103784.34
2023-02-12T15:15:30.723Z,103780.84
2023-02-12T15:20:36.652Z,103774.00
2023-02-12T15:25:40.006Z,103782.63
2023-02-12T15:30:44.346Z,103781.38
2023-02-12T15:35:47.409Z,103783.91
2023-02-12T15:40:58.037Z,103784.59
2023-02-12T15:46:03.169Z,103781.25
2023-02-12T15:51:09.723Z,103784.53
2023-02-12T15:56:14.664Z,103776.72
2023-02-12T16:01:21.337Z,103771.38
2023-02-12T16:06:26.487Z,103772.22
2023-02-12T16:11:30.110Z,103765.13
2023-02-12T16:16:45.462Z,103764.97
2023-02-12T16:21:51.719Z,103767.56
2023-02-12T16:26:55.437Z,103768.31
2023-02-12T16:32:02.819Z,103776.19
2023-02-12T16:37:44.788Z,103767.16
2023-02-12T16:43:07.908Z,103773.16
2023-02-12T16:48:19.772Z,103780.06
2023-02-12T16:53:36.445Z,103770.44
2023-02-12T16:58:39.366Z,103800.84
2023-02-12T17:03:44.495Z,103789.41
2023-02-12T17:08:47.310Z,103785.81
2023-02-12T17:13:51.530Z,103798.09
2023-02-12T17:18:55.706Z,103795.34
2023-02-12T17:23:58.816Z,103801.09
2023-02-12T17:29:05.379Z,103801.78
2023-02-12T17:34:09.828Z,103818.25
2023-02-12T17:39:14.037Z,103819.97
2023-02-12T17:44:16.870Z,103823.44
2023-02-12T17:49:21.092Z,103826.00
2023-02-12T17:54:23.890Z,103826.75
2023-02-12T17:59:26.765Z,103835.28
2023-02-12T18:04:33.843Z,103837.81
2023-02-12T18:09:38.676Z,103838.56
2023-02-12T18:14:41.811Z,103837.63
2023-02-12T18:19:47.398Z,103842.72
2023-02-12T18:24:50.310Z,103836.53
2023-02-12T18:29:53.164Z,103843.59
2023-02-12T18:34:57.401Z,103844.34
2023-02-12T18:40:00.401Z,103848.13
2023-02-12T18:45:03.501Z,103839.59
2023-02-12T18:50:09.293Z,103840.25
2023-02-12T18:55:12.156Z,103854.16
2023-02-12T19:00:15.881Z,103846.94
2023-02-12T19:05:20.169Z,103846.72
2023-02-12T19:10:23.178Z,103833.31
2023-02-12T19:15:26.082Z,103847.41
2023-02-12T19:20:30.374Z,103838.47
2023-02-12T19:25:35.831Z,103848.28
2023-02-12T19:30:39.715Z,103843.06
2023-02-12T19:35:45.776Z,103835.97
2023-02-12T19:40:48.594Z,103833.25
2023-02-12T19:45:51.491Z,103834.88
2023-02-12T19:50:58.568Z,103832.38
2023-02-12T19:56:02.896Z,103827.78
2023-02-12T20:01:09.442Z,103833.75
2023-02-12T20:06:15.687Z,103822.53
2023-02-12T20:11:20.382Z,103825.03
2023-02-12T20:16:24.773Z,103829.38
2023-02-12T20:21:29.887Z,103832.94
2023-02-12T20:26:33.840Z,103833.75
2023-02-12T20:31:38.050Z,103842.44
2023-02-12T20:36:45.662Z,103832.09
2023-02-12T20:41:48.744Z,103832.81
2023-02-12T20:46:56.393Z,103834.44
2023-02-12T20:52:01.414Z,103831.91
2023-02-12T20:57:06.772Z,103832.56
2023-02-12T21:02:10.892Z,103827.31
2023-02-12T21:07:15.131Z,103822.94
2023-02-12T21:12:19.512Z,103828.91
2023-02-12T21:17:23.634Z,103827.97
2023-02-12T21:22:27.895Z,103826.25
2023-02-12T21:27:31.114Z,103831.41
2023-02-12T21:32:34.026Z,103829.50
2023-02-12T21:37:38.250Z,103827.72
2023-02-12T21:42:41.094Z,103826.84
2023-02-12T21:47:44.132Z,103817.94
2023-02-12T21:52:48.549Z,103818.09
2023-02-12T21:57:51.695Z,103818.88
2023-02-12T22:02:55.041Z,103825.84
2023-02-12T22:07:59.585Z,103816.97
2023-02-12T22:13:02.631Z,103810.97
2023-02-12T22:18:05.769Z,103815.44
2023-02-12T22:23:10.547Z,103818.75
2023-02-12T22:28:13.360Z,103817.81
2023-02-12T22:33:16.406Z,103817.03
2023-02-12T22:38:20.731Z,103811.78
2023-02-12T22:43:23.567Z,103817.03
2023-02-12T22:48:28.169Z,103804.88
2023-02-12T22:53:32.368Z,103802.44
2023-02-12T22:58:37.047Z,103811.97
2023-02-12T23:03:40.237Z,103797.34
2023-02-12T23:08:45.134Z,103801.72
2023-02-12T23:13:48.081Z,103802.44
2023-02-12T23:18:55.414Z,103795.84
2023-02-12T23:24:00.176Z,103796.91
2023-02-12T23:29:03.043Z,103791.47
2023-02-12T23:34:05.949Z,103783.78
2023-02-12T23:39:12.213Z,103785.19
2023-02-12T23:44:15.070Z,103773.63
2023-02-12T23:49:17.897Z,103785.09
2023-02-12T23:54:22.084Z,103780.78
2023-02-12T23:59:25.579Z,103779.72
